Nearby METAR Reports

Actuele Vliegveldwaarnemingen NL (METAR).Zie KNMI uitleg METAR hier

EHAM - Amsterdam/Schiph, Netherlands
Distance from station: ONO 18km
Updated: 23/06/2018 17:55
Helder
Helder
 Wind van W
Wind: W 17 km/h
Temperatuur: 18°C
Dauwpunt: 9°C
Vochtigheid: 56%
Barometer: 1025 hPa
Overzicht: Helder
Visibility: greater than 10 km
2018/06/23 15:55 EHAM 231555Z 27009KT 240V310 CAVOK 18/09 Q1025 NOSIG
EHKD - DE KOOY/DE KOOY
Updated: 23/06/2018 17:55
Zwaar bewolkt
Zwaar bewolkt
 Wind van W
Wind: W 19 km/h
Temperatuur: 15°C
Dauwpunt: 10°C
Vochtigheid: 72%
Barometer: 1025 hPa
Clouds: Zwaar bewolkt
Visibility: 10 km
Cloud details: Few Clouds 518 m
Zwaar bewolkt 4877 m
2018/06/23 15:55 EHKD 231555Z AUTO 26010KT 230V300 9999 FEW017 OVC160 15/10 Q1025 BLU 26012KT CAVOK
 
EHLW - LEEUWARDEN/LEEUWARDEN
Updated: 23/06/2018 17:55
Zwaar bewolkt
Zwaar bewolkt
 Wind van WNW
Wind: WNW 22 km/h
Temperatuur: 16°C
Dauwpunt: 8°C
Vochtigheid: 59%
Barometer: 1025 hPa
Clouds: Zwaar bewolkt
Visibility: 10 km
Cloud details: Meestal bewolkt 3658 m
Zwaar bewolkt 6096 m
2018/06/23 15:55 EHLW 231555Z AUTO 30012KT 260V330 9999 BKN120 OVC200 16/08 Q1025 BLU
EHVK - VOLKEL/VOLKEL
Updated: 23/06/2018 17:55
Meestal bewolkt
Meestal bewolkt
 Wind van W
Wind: W 7 km/h
Temperatuur: 19°C
Dauwpunt: 9°C
Vochtigheid: 52%
Barometer: 1025 hPa
Clouds: Meestal bewolkt
Visibility: 10 km
Cloud details: Meestal bewolkt 1219 m
Meestal bewolkt 1494 m
Meestal bewolkt 1676 m
2018/06/23 15:55 EHVK 231555Z AUTO 28004KT 230V020 9999 BKN040 BKN049 BKN055 19/09 Q1025 BLU
 
EHFS - VLISSINGEN
Updated: 23/06/2018 17:55
Gedeeltelijk bewolkt
Gedeeltelijk bewolkt
 Wind van WNW
Wind: WNW 20 km/h
Temperatuur: 18°C
Dauwpunt: 11°C
Vochtigheid: 64%
Barometer: 1026 hPa
Clouds: Gedeeltelijk bewolkt
Visibility: 10 km
2018/06/23 15:55 EHFS 231555Z AUTO 29011KT 260V330 9999 NSC 18/11 Q1026 W///H///
EHEH - EINDHOVEN/EINDHOVEN
Updated: 23/06/2018 17:55
Meestal bewolkt
Meestal bewolkt
 Wind van NNW
Wind: NNW 7 km/h
Temperatuur: 20°C
Dauwpunt: 8°C
Vochtigheid: 46%
Barometer: 1025 hPa
Clouds: Meestal bewolkt
Visibility: 10 km
Cloud details: Meestal bewolkt 1463 m
Meestal bewolkt 1707 m
Meestal bewolkt 2073 m
2018/06/23 15:55 EHEH 231555Z AUTO 34004KT 220V030 9999 BKN048 BKN056 BKN068 20/08 Q1025 BLU VRB03KT 9999 SCT035 BKN230
 
EHGR - GILZE-RIJEN/GILZE-RIJEN
Updated: 23/06/2018 17:55
Zwaar bewolkt
Zwaar bewolkt
 Wind van W
Wind: W 19 km/h
Temperatuur: 21°C
Dauwpunt: 7°C
Vochtigheid: 40%
Barometer: 1025 hPa
Clouds: Zwaar bewolkt
Visibility: 10 km
Cloud details: Few Clouds 3962 m
Meestal bewolkt 7620 m
Zwaar bewolkt 10363 m
2018/06/23 15:55 EHGR 231555Z AUTO 27010KT 220V350 9999 FEW130 BKN250 OVC340 21/07 Q1025 BLU
EHDL - ARNHEM/DEELEN
Updated: 23/06/2018 17:55
Meestal bewolkt
Meestal bewolkt
 Wind van varies
Wind: varies 13 km/h
Temperatuur: 19°C
Dauwpunt: 9°C
Vochtigheid: 52%
Barometer: 1025 hPa
Clouds: Meestal bewolkt
Visibility: 10 km
Cloud details: Few Clouds 1189 m
Gedeeltelijk bewolkt 1524 m
Meestal bewolkt 1676 m
2018/06/23 15:55 EHDL 231555Z AUTO VRB07KT 9999 FEW039 SCT050 BKN055 19/09 Q1025 BLU
 
EHBK - MAASTRICHT/MAASTRICHT-AACHEN
Updated: 23/06/2018 17:55
Gedeeltelijk bewolkt
Gedeeltelijk bewolkt
 Wind van varies
Wind: varies 4 km/h
Temperatuur: 18°C
Dauwpunt: 9°C
Vochtigheid: 56%
Barometer: 1026 hPa
Clouds: Gedeeltelijk bewolkt
Visibility: 10 km
2018/06/23 15:55 EHBK 231555Z AUTO VRB02KT 9999 NSC 18/09 Q1026 NOSIG